createdAt,value
2018-08-23T00:00:42.183Z,59.68
2018-08-23T00:01:45.601Z,59.17
2018-08-23T00:02:49.019Z,58.91
2018-08-23T00:03:52.767Z,59.24
2018-08-23T00:04:56.159Z,59.40
2018-08-23T00:05:59.626Z,58.83
2018-08-23T00:07:03.075Z,59.31
2018-08-23T00:08:10.442Z,59.40
2018-08-23T00:09:13.797Z,59.48
2018-08-23T00:10:17.229Z,58.86
2018-08-23T00:11:23.829Z,59.17
2018-08-23T00:12:32.439Z,59.28
2018-08-23T00:13:41.206Z,59.00
2018-08-23T00:14:44.595Z,59.44
2018-08-23T00:15:48.027Z,59.17
2018-08-23T00:16:51.548Z,59.08
2018-08-23T00:17:55.723Z,58.67
2018-08-23T00:18:59.132Z,59.28
2018-08-23T00:20:03.775Z,59.75
2018-08-23T00:21:12.263Z,59.15
2018-08-23T00:22:30.265Z,59.20
2018-08-23T00:23:33.675Z,59.18
2018-08-23T00:24:37.132Z,59.18
2018-08-23T00:25:40.489Z,58.70
2018-08-23T00:26:46.303Z,59.54
2018-08-23T00:27:49.714Z,59.14
2018-08-23T00:28:53.107Z,59.56
2018-08-23T00:29:56.473Z,59.09
2018-08-23T00:30:59.985Z,59.25
2018-08-23T00:32:05.657Z,58.65
2018-08-23T00:33:09.057Z,58.91
2018-08-23T00:34:12.548Z,59.19
2018-08-23T00:35:19.874Z,58.77
2018-08-23T00:36:23.277Z,59.57
2018-08-23T00:37:26.700Z,59.02
2018-08-23T00:38:30.098Z,58.67
2018-08-23T00:39:33.625Z,59.11
2018-08-23T00:40:44.908Z,59.61
2018-08-23T00:41:53.698Z,58.97
2018-08-23T00:43:02.492Z,58.88
2018-08-23T00:44:05.931Z,58.86
2018-08-23T00:45:15.593Z,59.32
2018-08-23T00:46:19.035Z,58.71
2018-08-23T00:47:24.999Z,59.10
2018-08-23T00:48:28.412Z,59.42
2018-08-23T00:49:33.456Z,58.81
2018-08-23T00:50:53.823Z,59.19
2018-08-23T00:51:57.197Z,59.09
2018-08-23T00:53:00.657Z,59.44
2018-08-23T00:54:04.193Z,58.86
2018-08-23T00:55:16.334Z,59.08
2018-08-23T00:56:22.808Z,59.21
2018-08-23T00:57:26.224Z,58.99
2018-08-23T00:58:29.577Z,58.87
2018-08-23T00:59:33.025Z,59.65
2018-08-23T01:00:36.416Z,59.29
2018-08-23T01:01:39.836Z,59.14
2018-08-23T01:02:43.273Z,59.03
2018-08-23T01:03:46.673Z,59.21
2018-08-23T01:04:50.062Z,58.53
2018-08-23T01:05:53.506Z,58.62
2018-08-23T01:06:56.892Z,58.85
2018-08-23T01:08:00.296Z,58.55
2018-08-23T01:09:04.610Z,59.29
2018-08-23T01:10:08.081Z,58.98
2018-08-23T01:11:11.470Z,59.12
2018-08-23T01:12:14.902Z,59.23
2018-08-23T01:13:18.304Z,59.00
2018-08-23T01:14:21.720Z,59.32
2018-08-23T01:15:25.124Z,59.08
2018-08-23T01:16:28.535Z,59.33
2018-08-23T01:17:31.947Z,59.21
2018-08-23T01:18:35.355Z,59.60
2018-08-23T01:19:44.068Z,59.15
2018-08-23T01:20:48.585Z,59.09
2018-08-23T01:21:56.111Z,59.34
2018-08-23T01:23:01.225Z,59.47
2018-08-23T01:24:04.713Z,59.07
2018-08-23T01:25:08.143Z,59.05
2018-08-23T01:26:11.623Z,59.00
2018-08-23T01:27:51.389Z,58.54
2018-08-23T01:28:54.813Z,58.41
2018-08-23T01:29:58.191Z,58.58
2018-08-23T01:31:17.151Z,59.40
2018-08-23T01:32:35.131Z,59.07
2018-08-23T01:33:38.507Z,59.04
2018-08-23T01:34:41.895Z,59.01
2018-08-23T01:35:46.316Z,59.07
2018-08-23T01:36:49.685Z,58.92
2018-08-23T01:37:53.192Z,58.95
2018-08-23T01:38:56.626Z,58.70
2018-08-23T01:40:00.274Z,58.68
2018-08-23T01:41:08.980Z,59.34
2018-08-23T01:42:12.463Z,58.47
2018-08-23T01:43:15.875Z,58.73
2018-08-23T01:44:19.395Z,58.94
2018-08-23T01:45:22.759Z,59.23
2018-08-23T01:46:31.431Z,59.42
2018-08-23T01:47:41.633Z,58.87
2018-08-23T01:48:49.459Z,58.92
2018-08-23T01:49:52.834Z,59.09
2018-08-23T01:50:56.231Z,58.87
2018-08-23T01:51:59.640Z,58.90
2018-08-23T01:53:03.031Z,58.95
2018-08-23T01:54:06.487Z,58.73
2018-08-23T01:55:10.457Z,58.67
2018-08-23T01:56:13.859Z,58.34
2018-08-23T01:57:21.456Z,59.08
2018-08-23T01:58:24.914Z,58.81
2018-08-23T01:59:28.326Z,59.15
2018-08-23T02:00:32.989Z,58.45
2018-08-23T02:01:36.411Z,58.66
2018-08-23T02:02:39.870Z,59.26
2018-08-23T02:03:43.744Z,59.11
2018-08-23T02:04:47.947Z,58.99
2018-08-23T02:05:51.338Z,58.79
2018-08-23T02:06:54.757Z,58.64
2018-08-23T02:07:58.245Z,59.22
2018-08-23T02:09:01.635Z,58.43
2018-08-23T02:10:05.683Z,58.83
2018-08-23T02:11:09.126Z,58.39
2018-08-23T02:12:12.498Z,58.87
2018-08-23T02:13:24.186Z,59.01
2018-08-23T02:14:28.631Z,58.80
2018-08-23T02:15:36.349Z,58.88
2018-08-23T02:16:50.898Z,58.86
2018-08-23T02:17:56.526Z,59.40
2018-08-23T02:18:59.956Z,58.38
2018-08-23T02:20:03.452Z,58.43
2018-08-23T02:21:09.463Z,58.99
2018-08-23T02:22:13.143Z,59.27
2018-08-23T02:23:16.530Z,58.65
2018-08-23T02:24:24.079Z,59.36
2018-08-23T02:25:27.490Z,59.32
2018-08-23T02:26:30.922Z,59.09
2018-08-23T02:27:34.486Z,58.79
2018-08-23T02:28:37.858Z,58.88
2018-08-23T02:29:42.674Z,58.61
2018-08-23T02:30:56.832Z,59.32
2018-08-23T02:32:00.244Z,58.86
2018-08-23T02:33:03.778Z,59.17
2018-08-23T02:34:07.344Z,58.75
2018-08-23T02:35:10.751Z,59.27
2018-08-23T02:36:17.508Z,58.90
2018-08-23T02:37:21.626Z,58.46
2018-08-23T02:38:25.763Z,58.70
2018-08-23T02:39:29.167Z,59.11
2018-08-23T02:40:34.824Z,58.29
2018-08-23T02:41:38.355Z,58.79
2018-08-23T02:42:41.764Z,59.11
2018-08-23T02:43:45.707Z,59.26
2018-08-23T02:44:49.155Z,58.81
2018-08-23T02:45:53.503Z,59.36
2018-08-23T02:46:56.934Z,58.68
2018-08-23T02:48:01.020Z,58.93
2018-08-23T02:49:04.477Z,58.73
2018-08-23T02:50:07.920Z,58.78
2018-08-23T02:51:11.394Z,58.78
2018-08-23T02:52:14.832Z,58.88
2018-08-23T02:53:33.480Z,58.95
2018-08-23T02:54:36.930Z,58.90
2018-08-23T02:55:44.620Z,59.25
2018-08-23T02:56:52.621Z,58.53
2018-08-23T02:58:00.158Z,59.37
2018-08-23T02:59:06.585Z,59.12
2018-08-23T03:00:10.042Z,59.15
2018-08-23T03:01:13.472Z,59.42
2018-08-23T03:02:17.117Z,59.01
2018-08-23T03:03:20.614Z,58.77
2018-08-23T03:04:25.058Z,58.93
2018-08-23T03:05:28.508Z,59.28
2018-08-23T03:06:37.326Z,58.77
2018-08-23T03:07:40.815Z,58.23
2018-08-23T03:08:44.544Z,58.44
2018-08-23T03:09:47.922Z,59.28
2018-08-23T03:10:51.352Z,58.66
2018-08-23T03:11:55.951Z,58.81
2018-08-23T03:12:59.347Z,58.34
2018-08-23T03:14:02.791Z,59.11
2018-08-23T03:15:07.213Z,58.57
2018-08-23T03:16:10.598Z,58.62
2018-08-23T03:17:23.666Z,59.21
2018-08-23T03:18:27.054Z,59.12
2018-08-23T03:19:30.443Z,58.36
2018-08-23T03:20:34.326Z,58.54
2018-08-23T03:21:37.791Z,59.05
2018-08-23T03:22:41.754Z,58.38
2018-08-23T03:23:45.909Z,58.76
2018-08-23T03:24:49.284Z,58.86
2018-08-23T03:25:52.766Z,59.08
2018-08-23T03:26:56.124Z,59.18
2018-08-23T03:27:59.510Z,58.50
2018-08-23T03:29:03.408Z,58.97
2018-08-23T03:30:09.072Z,59.03
2018-08-23T03:31:12.531Z,59.25
2018-08-23T03:32:15.898Z,58.33
2018-08-23T03:33:19.344Z,59.32
2018-08-23T03:34:22.768Z,59.36
2018-08-23T03:35:26.243Z,59.13
2018-08-23T03:36:29.608Z,59.20
2018-08-23T03:37:33.015Z,59.16
2018-08-23T03:38:36.432Z,58.20
2018-08-23T03:39:39.843Z,59.01
2018-08-23T03:40:43.227Z,58.49
2018-08-23T03:41:46.598Z,58.35
2018-08-23T03:42:50.021Z,58.92
2018-08-23T03:43:53.519Z,58.89
2018-08-23T03:44:57.777Z,58.99
2018-08-23T03:46:01.124Z,58.91
2018-08-23T03:47:04.545Z,58.98
2018-08-23T03:48:07.936Z,58.83
2018-08-23T03:49:11.353Z,59.01
2018-08-23T03:50:14.733Z,59.12
2018-08-23T03:51:18.124Z,59.11
2018-08-23T03:52:22.972Z,59.05
2018-08-23T03:53:48.482Z,58.45
2018-08-23T03:54:55.474Z,59.06
2018-08-23T03:56:07.612Z,58.68
2018-08-23T03:57:16.363Z,58.76
2018-08-23T03:58:19.756Z,58.87
2018-08-23T03:59:23.205Z,59.19
2018-08-23T04:00:31.884Z,59.15
2018-08-23T04:01:35.308Z,59.01
2018-08-23T04:02:38.751Z,58.53
2018-08-23T04:03:42.288Z,58.85
2018-08-23T04:04:47.394Z,59.21
2018-08-23T04:05:50.835Z,58.97
2018-08-23T04:06:54.306Z,58.99
2018-08-23T04:07:57.709Z,59.03
2018-08-23T04:09:01.119Z,59.09
2018-08-23T04:10:04.719Z,59.06
2018-08-23T04:11:08.118Z,58.42
2018-08-23T04:12:11.504Z,58.63
2018-08-23T04:13:15.007Z,59.09
2018-08-23T04:14:18.411Z,58.83
2018-08-23T04:15:33.049Z,59.20
2018-08-23T04:16:36.336Z,58.93
2018-08-23T04:17:39.902Z,58.97
2018-08-23T04:18:43.310Z,59.22
2018-08-23T04:19:48.492Z,59.09
2018-08-23T04:20:54.357Z,59.18
2018-08-23T04:21:57.891Z,59.32
2018-08-23T04:23:01.313Z,58.61
2018-08-23T04:24:05.052Z,58.81
2018-08-23T04:25:08.452Z,59.51
2018-08-23T04:26:11.937Z,59.38
2018-08-23T04:27:15.340Z,59.38
2018-08-23T04:28:18.729Z,59.34
2018-08-23T04:29:33.517Z,59.18
2018-08-23T04:30:36.936Z,59.57
2018-08-23T04:31:40.325Z,58.57
2018-08-23T04:32:45.747Z,59.39
2018-08-23T04:33:49.140Z,59.41
2018-08-23T04:34:52.561Z,58.95
2018-08-23T04:35:55.952Z,58.67
2018-08-23T04:36:59.368Z,59.19
2018-08-23T04:38:03.028Z,58.93
2018-08-23T04:39:10.454Z,59.33
2018-08-23T04:40:13.897Z,58.75
2018-08-23T04:41:17.296Z,58.69
2018-08-23T04:42:20.710Z,59.55
2018-08-23T04:43:24.109Z,58.58
2018-08-23T04:44:27.805Z,58.85
2018-08-23T04:45:33.570Z,58.95
2018-08-23T04:46:36.982Z,58.10
2018-08-23T04:47:47.837Z,57.35
2018-08-23T04:48:51.489Z,57.43
2018-08-23T04:49:55.084Z,57.01
2018-08-23T04:50:58.472Z,57.76
2018-08-23T04:52:02.048Z,56.80
2018-08-23T04:53:05.639Z,56.60
2018-08-23T04:54:09.104Z,56.81
2018-08-23T04:55:12.464Z,56.25
2018-08-23T04:56:15.854Z,56.67
2018-08-23T04:57:19.622Z,56.26
2018-08-23T04:58:23.061Z,56.02
2018-08-23T04:59:26.456Z,56.35
2018-08-23T05:00:30.505Z,56.06
2018-08-23T05:01:33.913Z,55.75
2018-08-23T05:02:37.365Z,56.10
2018-08-23T05:03:40.791Z,55.94
2018-08-23T05:04:44.177Z,56.06
2018-08-23T05:05:47.563Z,55.85
2018-08-23T05:06:50.983Z,56.09
2018-08-23T05:07:54.408Z,56.68
2018-08-23T05:08:57.930Z,56.95
2018-08-23T05:10:01.425Z,56.06
2018-08-23T05:11:04.753Z,56.10
2018-08-23T05:12:08.199Z,56.11
2018-08-23T05:13:11.733Z,56.47
2018-08-23T05:14:15.120Z,55.89
2018-08-23T05:15:18.539Z,56.21
2018-08-23T05:16:21.980Z,56.70
2018-08-23T05:17:25.882Z,56.53
2018-08-23T05:18:29.281Z,56.25
2018-08-23T05:19:32.680Z,56.99
2018-08-23T05:20:36.206Z,57.19
2018-08-23T05:21:39.608Z,57.74
2018-08-23T05:23:16.298Z,57.16
2018-08-23T05:24:21.697Z,57.50
2018-08-23T05:25:25.828Z,57.49
2018-08-23T05:26:29.294Z,57.31
2018-08-23T05:27:33.440Z,57.18
2018-08-23T05:28:38.452Z,57.66
2018-08-23T05:29:42.913Z,57.53
2018-08-23T05:30:47.889Z,56.77
2018-08-23T05:31:51.347Z,57.66
2018-08-23T05:32:55.957Z,57.85
2018-08-23T05:34:02.708Z,57.60
2018-08-23T05:35:06.120Z,57.40
2018-08-23T05:36:13.638Z,57.46
2018-08-23T05:37:17.065Z,58.27
2018-08-23T05:38:20.798Z,57.48
2018-08-23T05:39:33.959Z,57.85
2018-08-23T05:40:43.022Z,58.79
2018-08-23T05:41:46.518Z,58.36
2018-08-23T05:42:54.421Z,57.88
2018-08-23T05:44:12.464Z,58.42
2018-08-23T05:45:15.841Z,58.22
2018-08-23T05:46:19.252Z,58.19
2018-08-23T05:47:22.943Z,58.35
2018-08-23T05:48:32.470Z,58.36
2018-08-23T05:49:35.841Z,58.16
2018-08-23T05:50:39.315Z,57.93
2018-08-23T05:51:43.863Z,58.68
2018-08-23T05:52:47.328Z,58.60
2018-08-23T05:53:53.149Z,58.17
2018-08-23T05:54:57.373Z,58.12
2018-08-23T05:56:01.696Z,58.21
2018-08-23T05:57:05.182Z,58.48
2018-08-23T05:58:19.670Z,58.33
2018-08-23T05:59:24.481Z,58.11
2018-08-23T06:00:28.169Z,58.81
2018-08-23T06:01:31.575Z,58.04
2018-08-23T06:02:35.061Z,58.65
2018-08-23T06:03:38.806Z,58.26
2018-08-23T06:04:43.366Z,59.19
2018-08-23T06:05:48.061Z,59.10
2018-08-23T06:06:51.533Z,59.27
2018-08-23T06:07:54.997Z,59.35
2018-08-23T06:09:00.845Z,59.18
2018-08-23T06:10:04.376Z,59.43
2018-08-23T06:11:11.189Z,58.98
2018-08-23T06:12:14.618Z,58.87
2018-08-23T06:13:18.596Z,58.82
2018-08-23T06:14:22.023Z,59.06
2018-08-23T06:15:25.759Z,59.53
2018-08-23T06:16:29.216Z,59.74
2018-08-23T06:17:32.654Z,59.43
2018-08-23T06:18:36.191Z,59.37
2018-08-23T06:19:39.644Z,60.04
2018-08-23T06:20:43.070Z,59.75
2018-08-23T06:21:46.505Z,60.41
2018-08-23T06:22:49.891Z,59.79
2018-08-23T06:23:54.101Z,59.85
2018-08-23T06:24:57.515Z,60.27
2018-08-23T06:26:01.125Z,60.30
2018-08-23T06:27:04.612Z,60.14
2018-08-23T06:28:20.807Z,60.18
2018-08-23T06:29:33.768Z,60.29
2018-08-23T06:30:37.275Z,59.89
2018-08-23T06:31:51.724Z,60.35
2018-08-23T06:32:59.343Z,60.51
2018-08-23T06:34:02.847Z,60.92
2018-08-23T06:35:06.282Z,60.94
2018-08-23T06:36:10.582Z,60.15
2018-08-23T06:37:14.402Z,60.46
2018-08-23T06:38:17.763Z,60.45
2018-08-23T06:39:21.165Z,60.86
2018-08-23T06:40:24.609Z,60.80
2018-08-23T06:41:28.859Z,60.80
2018-08-23T06:42:45.184Z,60.40
2018-08-23T06:43:49.045Z,60.93
2018-08-23T06:44:53.392Z,60.64
2018-08-23T06:45:56.905Z,60.30
2018-08-23T06:47:00.348Z,60.85
2018-08-23T06:48:03.989Z,60.42
2018-08-23T06:49:07.459Z,60.65
2018-08-23T06:50:10.937Z,60.34
2018-08-23T06:51:14.415Z,60.34
2018-08-23T06:52:50.063Z,60.12
2018-08-23T06:53:55.387Z,60.82
2018-08-23T06:54:58.798Z,60.41
2018-08-23T06:56:02.259Z,61.32
2018-08-23T06:57:05.697Z,61.46
2018-08-23T06:58:09.149Z,60.83
2018-08-23T06:59:12.593Z,61.54
2018-08-23T07:00:21.249Z,61.04
2018-08-23T07:01:35.299Z,61.08
2018-08-23T07:02:44.135Z,61.01
2018-08-23T07:03:56.778Z,60.71
2018-08-23T07:05:00.217Z,60.51
2018-08-23T07:06:03.699Z,60.47
2018-08-23T07:07:11.247Z,61.00
2018-08-23T07:08:14.726Z,60.82
2018-08-23T07:09:18.970Z,61.12
2018-08-23T07:10:22.838Z,60.59
2018-08-23T07:11:26.905Z,60.38
2018-08-23T07:12:30.349Z,60.82
2018-08-23T07:13:33.759Z,60.87
2018-08-23T07:14:37.496Z,61.30
2018-08-23T07:15:45.434Z,61.51
2018-08-23T07:16:50.213Z,61.26
2018-08-23T07:17:53.675Z,60.35
2018-08-23T07:18:57.293Z,61.11
2018-08-23T07:20:02.812Z,60.67
2018-08-23T07:21:06.374Z,61.11
2018-08-23T07:22:09.872Z,61.80
2018-08-23T07:23:24.765Z,61.09
2018-08-23T07:24:39.593Z,61.77
2018-08-23T07:25:44.912Z,61.79
2018-08-23T07:26:48.405Z,61.07
2018-08-23T07:27:51.847Z,61.14
2018-08-23T07:28:55.321Z,61.54
2018-08-23T07:29:59.587Z,60.93
2018-08-23T07:31:02.997Z,61.12
2018-08-23T07:32:07.622Z,61.03
2018-08-23T07:33:11.036Z,60.61
2018-08-23T07:34:14.412Z,61.16
2018-08-23T07:35:18.825Z,60.64
2018-08-23T07:36:31.203Z,60.44
2018-08-23T07:37:35.895Z,60.79
2018-08-23T07:38:39.326Z,60.49
2018-08-23T07:39:47.013Z,60.88
2018-08-23T07:40:50.507Z,60.93
2018-08-23T07:41:53.970Z,61.14
2018-08-23T07:42:57.515Z,61.19
2018-08-23T07:44:00.872Z,61.08
2018-08-23T07:45:04.713Z,60.90
2018-08-23T07:46:08.368Z,60.77
2018-08-23T07:47:11.791Z,60.62
2018-08-23T07:48:15.198Z,61.03
2018-08-23T07:49:18.586Z,60.58
2018-08-23T07:50:22.065Z,60.92
2018-08-23T07:51:26.330Z,60.45
2018-08-23T07:52:31.192Z,60.59
2018-08-23T07:53:34.616Z,60.39
2018-08-23T07:54:38.044Z,60.42
2018-08-23T07:55:41.495Z,60.81
2018-08-23T07:56:44.966Z,60.46
2018-08-23T07:57:48.408Z,60.39
2018-08-23T07:58:54.991Z,60.77
2018-08-23T07:59:59.661Z,61.37
2018-08-23T08:01:03.168Z,60.82
2018-08-23T08:02:11.645Z,60.94
2018-08-23T08:03:15.758Z,61.05
2018-08-23T08:04:19.272Z,60.82
2018-08-23T08:05:24.705Z,60.44
2018-08-23T08:06:28.851Z,60.47
2018-08-23T08:07:32.733Z,60.44
2018-08-23T08:08:36.235Z,60.75
2018-08-23T08:09:39.683Z,60.32
2018-08-23T08:10:45.279Z,60.60
2018-08-23T08:11:53.934Z,60.29
2018-08-23T08:12:57.603Z,60.31
2018-08-23T08:14:14.318Z,60.62
2018-08-23T08:15:18.279Z,60.58
2018-08-23T08:16:22.393Z,60.92
2018-08-23T08:17:25.955Z,59.88
2018-08-23T08:18:29.380Z,59.92
2018-08-23T08:19:37.421Z,60.27
2018-08-23T08:20:40.878Z,60.58
2018-08-23T08:21:44.339Z,60.23
2018-08-23T08:22:47.762Z,61.13
2018-08-23T08:23:57.806Z,60.78
2018-08-23T08:25:10.566Z,60.49
2018-08-23T08:26:14.084Z,61.06
2018-08-23T08:27:17.635Z,61.03
2018-08-23T08:28:21.083Z,60.55
2018-08-23T08:29:29.623Z,60.24
2018-08-23T08:30:40.805Z,60.32
2018-08-23T08:31:44.190Z,60.42
2018-08-23T08:32:47.630Z,60.71
2018-08-23T08:33:51.120Z,60.82
2018-08-23T08:34:57.797Z,60.56
2018-08-23T08:36:02.766Z,60.38
2018-08-23T08:37:06.220Z,61.15
2018-08-23T08:38:09.656Z,60.19
2018-08-23T08:39:13.131Z,60.54
2018-08-23T08:40:21.816Z,60.63
2018-08-23T08:41:25.248Z,61.21
2018-08-23T08:42:31.413Z,60.52
2018-08-23T08:43:34.893Z,60.33
2018-08-23T08:44:38.323Z,60.59
2018-08-23T08:45:41.740Z,60.42
2018-08-23T08:46:45.152Z,60.62
2018-08-23T08:47:48.785Z,60.45
2018-08-23T08:48:52.208Z,60.84
2018-08-23T08:49:55.840Z,61.06
2018-08-23T08:51:15.777Z,60.40
2018-08-23T08:52:19.193Z,60.16
2018-08-23T08:53:22.609Z,60.24
2018-08-23T08:54:26.032Z,60.63
2018-08-23T08:55:29.440Z,60.64
2018-08-23T08:56:48.454Z,60.63
2018-08-23T08:57:51.927Z,60.90
2018-08-23T08:58:55.324Z,60.02
2018-08-23T08:59:58.764Z,60.82
2018-08-23T09:01:02.175Z,60.64
2018-08-23T09:02:05.738Z,61.30
2018-08-23T09:03:09.148Z,60.22
2018-08-23T09:04:16.696Z,61.21
2018-08-23T09:05:20.054Z,60.20
2018-08-23T09:06:27.768Z,60.52
2018-08-23T09:07:32.334Z,60.63
2018-08-23T09:08:36.856Z,60.55
2018-08-23T09:09:42.005Z,60.99
2018-08-23T09:10:45.473Z,60.61
2018-08-23T09:11:48.920Z,60.67
2018-08-23T09:12:52.382Z,60.43
2018-08-23T09:13:55.885Z,60.56
2018-08-23T09:14:59.838Z,59.90
2018-08-23T09:16:08.503Z,60.17
2018-08-23T09:17:28.575Z,60.37
2018-08-23T09:18:31.961Z,60.55
2018-08-23T09:19:46.608Z,60.09
2018-08-23T09:20:52.931Z,60.16
2018-08-23T09:22:05.369Z,60.49
2018-08-23T09:23:08.807Z,60.72
2018-08-23T09:24:25.212Z,60.51
2018-08-23T09:25:43.339Z,60.64
2018-08-23T09:26:46.792Z,59.98
2018-08-23T09:27:50.887Z,59.79
2018-08-23T09:28:54.291Z,59.82
2018-08-23T09:29:57.780Z,60.47
2018-08-23T09:31:01.195Z,60.00
2018-08-23T09:32:28.425Z,60.52
2018-08-23T09:33:31.814Z,60.26
2018-08-23T09:34:35.271Z,60.30
2018-08-23T09:35:38.864Z,59.93
2018-08-23T09:36:42.281Z,60.40
2018-08-23T09:37:47.043Z,60.26
2018-08-23T09:38:50.468Z,59.85
2018-08-23T09:39:53.900Z,60.33
2018-08-23T09:40:57.305Z,59.42
2018-08-23T09:42:00.713Z,60.03
2018-08-23T09:43:04.492Z,60.29
2018-08-23T09:44:07.871Z,59.73
2018-08-23T09:45:15.075Z,60.46
2018-08-23T09:46:18.493Z,60.34
2018-08-23T09:47:21.956Z,60.11
2018-08-23T09:48:25.375Z,60.17
2018-08-23T09:49:28.776Z,60.68
2018-08-23T09:50:32.336Z,59.58
2018-08-23T09:51:36.000Z,59.53
2018-08-23T09:52:45.191Z,59.74
2018-08-23T09:53:48.597Z,59.84
2018-08-23T09:54:52.037Z,60.06
2018-08-23T09:55:56.686Z,59.35
2018-08-23T09:57:00.097Z,60.20
2018-08-23T09:58:03.529Z,60.49
2018-08-23T09:59:08.127Z,59.90
2018-08-23T10:00:13.248Z,59.81
2018-08-23T10:01:22.085Z,60.07
2018-08-23T10:02:30.689Z,59.65
2018-08-23T10:04:39.334Z,59.36
2018-08-23T10:05:48.096Z,59.51
2018-08-23T10:07:01.555Z,59.65
2018-08-23T10:08:10.563Z,59.99
2018-08-23T10:09:19.217Z,59.37
2018-08-23T10:10:27.978Z,59.45
2018-08-23T10:11:36.950Z,60.19
2018-08-23T10:12:45.703Z,59.66
2018-08-23T10:13:54.327Z,59.86
2018-08-23T10:15:03.471Z,60.20
2018-08-23T10:16:12.234Z,59.33
2018-08-23T10:17:20.787Z,60.09
2018-08-23T10:18:29.406Z,59.70
2018-08-23T10:19:38.182Z,60.28
2018-08-23T10:20:46.959Z,60.30
2018-08-23T10:21:55.517Z,60.07
2018-08-23T10:23:04.245Z,59.89
2018-08-23T10:24:15.390Z,59.22
2018-08-23T10:25:32.312Z,59.23
2018-08-23T10:26:35.878Z,59.47
2018-08-23T10:27:39.304Z,59.58
2018-08-23T10:28:48.063Z,59.64
2018-08-23T10:29:51.525Z,59.75
2018-08-23T10:30:55.718Z,59.51
2018-08-23T10:31:59.439Z,59.78
2018-08-23T10:33:02.855Z,59.91
2018-08-23T10:34:06.475Z,59.93
2018-08-23T10:35:09.889Z,59.41
2018-08-23T10:36:13.600Z,59.52
2018-08-23T10:37:17.056Z,59.43
2018-08-23T10:38:22.173Z,59.75
2018-08-23T10:39:25.532Z,59.42
2018-08-23T10:40:28.947Z,59.57
2018-08-23T10:41:32.463Z,59.38
2018-08-23T10:42:35.873Z,59.27
2018-08-23T10:43:46.325Z,60.24
2018-08-23T10:44:49.744Z,59.88
2018-08-23T10:45:53.418Z,59.49
2018-08-23T10:46:57.767Z,60.17
2018-08-23T10:48:06.568Z,59.24
2018-08-23T10:49:10.031Z,59.79
2018-08-23T10:50:13.459Z,59.88
2018-08-23T10:51:16.916Z,60.00
2018-08-23T10:52:20.367Z,59.80
2018-08-23T10:53:23.813Z,59.19
2018-08-23T10:54:27.261Z,59.91
2018-08-23T10:55:30.747Z,59.83
2018-08-23T10:56:34.139Z,59.78
2018-08-23T10:57:37.588Z,59.79
2018-08-23T10:58:40.971Z,59.69
2018-08-23T10:59:44.388Z,59.69
2018-08-23T11:00:47.801Z,59.05
2018-08-23T11:01:51.584Z,59.17
2018-08-23T11:02:55.142Z,59.69
2018-08-23T11:04:03.903Z,59.94
2018-08-23T11:05:07.358Z,59.92
2018-08-23T11:06:10.773Z,59.21
2018-08-23T11:07:14.231Z,59.45
2018-08-23T11:08:21.581Z,59.17
2018-08-23T11:09:30.507Z,59.35
2018-08-23T11:10:39.193Z,59.72
2018-08-23T11:11:42.608Z,59.01
2018-08-23T11:13:49.807Z,59.27
2018-08-23T11:14:53.351Z,59.35
2018-08-23T11:16:01.991Z,59.41
2018-08-23T11:17:10.638Z,59.04
2018-08-23T11:18:19.334Z,59.76
2018-08-23T11:19:28.055Z,59.37
2018-08-23T11:20:35.651Z,59.04
2018-08-23T11:21:39.096Z,59.72
2018-08-23T11:22:42.524Z,59.66
2018-08-23T11:23:46.668Z,59.74
2018-08-23T11:24:50.066Z,59.58
2018-08-23T11:25:53.575Z,59.39
2018-08-23T11:26:57.040Z,60.02
2018-08-23T11:28:04.627Z,59.73
2018-08-23T11:29:08.023Z,59.86
2018-08-23T11:30:11.447Z,59.80
2018-08-23T11:31:20.245Z,59.65
2018-08-23T11:32:23.672Z,59.32
2018-08-23T11:33:27.140Z,59.82
2018-08-23T11:34:30.581Z,59.11
2018-08-23T11:35:34.005Z,59.29
2018-08-23T11:36:37.455Z,59.20
2018-08-23T11:37:41.016Z,59.93
2018-08-23T11:38:44.408Z,59.85
2018-08-23T11:39:47.851Z,59.76
2018-08-23T11:40:52.004Z,59.90
2018-08-23T11:41:55.426Z,59.17
2018-08-23T11:42:58.905Z,59.44
2018-08-23T11:44:02.339Z,59.81
2018-08-23T11:45:06.086Z,59.18
2018-08-23T11:46:14.880Z,59.80
2018-08-23T11:47:18.281Z,59.76
2018-08-23T11:48:21.761Z,59.42
2018-08-23T11:49:25.396Z,58.90
2018-08-23T11:50:28.907Z,59.28
2018-08-23T11:51:32.337Z,59.11
2018-08-23T11:52:35.744Z,59.72
2018-08-23T11:53:39.333Z,59.65
2018-08-23T11:54:42.683Z,59.45
2018-08-23T11:55:46.126Z,58.92
2018-08-23T11:56:49.542Z,59.29
2018-08-23T11:57:53.027Z,59.34
2018-08-23T11:58:56.491Z,58.93
2018-08-23T11:59:59.887Z,59.15
2018-08-23T12:01:08.592Z,58.78
2018-08-23T12:02:12.037Z,59.05
2018-08-23T12:03:15.468Z,58.82
2018-08-23T12:04:18.865Z,59.30
2018-08-23T12:05:22.281Z,59.02
2018-08-23T12:06:25.833Z,58.95
2018-08-23T12:07:29.747Z,58.44
2018-08-23T12:08:33.182Z,58.74
2018-08-23T12:09:36.574Z,58.53
2018-08-23T12:10:40.021Z,58.76
2018-08-23T12:11:43.418Z,59.02
2018-08-23T12:12:47.980Z,58.98
2018-08-23T12:13:51.906Z,59.13
2018-08-23T12:14:55.575Z,59.27
2018-08-23T12:15:59.066Z,58.59
2018-08-23T12:17:02.571Z,58.59
2018-08-23T12:18:06.429Z,59.00
2018-08-23T12:19:09.865Z,58.99
2018-08-23T12:20:13.303Z,58.82
2018-08-23T12:21:16.699Z,58.77
2018-08-23T12:22:24.309Z,59.15
2018-08-23T12:23:27.816Z,58.20
2018-08-23T12:24:31.242Z,58.85
2018-08-23T12:25:34.698Z,58.68
2018-08-23T12:26:38.072Z,58.45
2018-08-23T12:27:42.396Z,58.05
2018-08-23T12:28:51.036Z,58.53
2018-08-23T12:29:54.457Z,58.72
2018-08-23T12:30:57.879Z,58.37
2018-08-23T12:32:01.345Z,58.25
2018-08-23T12:33:04.828Z,58.60
2018-08-23T12:34:09.624Z,58.01
2018-08-23T12:35:13.338Z,58.95
2018-08-23T12:36:20.904Z,59.04
2018-08-23T12:37:29.658Z,58.62
2018-08-23T12:38:38.431Z,58.73
2018-08-23T12:39:47.076Z,58.46
2018-08-23T12:40:55.913Z,58.79
2018-08-23T12:42:04.671Z,58.78
2018-08-23T12:43:10.590Z,58.90
2018-08-23T12:44:14.060Z,58.80
2018-08-23T12:45:17.507Z,58.81
2018-08-23T12:46:20.964Z,59.32
2018-08-23T12:47:24.369Z,58.67
2018-08-23T12:48:28.506Z,58.87
2018-08-23T12:49:32.158Z,59.26
2018-08-23T12:50:35.561Z,59.19
2018-08-23T12:51:39.015Z,58.97
2018-08-23T12:52:42.465Z,59.08
2018-08-23T12:53:45.892Z,58.93
2018-08-23T12:54:49.336Z,59.50
2018-08-23T12:55:52.778Z,58.99
2018-08-23T12:56:56.174Z,58.86
2018-08-23T12:57:59.623Z,58.91
2018-08-23T12:59:03.113Z,58.81
2018-08-23T13:00:06.769Z,59.31
2018-08-23T13:01:10.233Z,59.08
2018-08-23T13:02:13.723Z,58.90
2018-08-23T13:03:17.080Z,59.01
2018-08-23T13:04:20.696Z,58.89
2018-08-23T13:05:24.319Z,59.14
2018-08-23T13:06:27.757Z,59.34
2018-08-23T13:07:31.149Z,59.23
2018-08-23T13:08:34.630Z,58.98
2018-08-23T13:09:38.704Z,58.81
2018-08-23T13:10:42.144Z,59.43
2018-08-23T13:11:45.553Z,59.41
2018-08-23T13:12:49.272Z,59.32
2018-08-23T13:13:52.821Z,58.99
2018-08-23T13:14:56.557Z,58.95
2018-08-23T13:16:00.022Z,59.23
2018-08-23T13:17:03.503Z,59.06
2018-08-23T13:18:07.057Z,59.31
2018-08-23T13:19:10.483Z,59.39
2018-08-23T13:20:13.912Z,59.88
2018-08-23T13:21:17.391Z,59.03
2018-08-23T13:22:26.097Z,58.96
2018-08-23T13:23:29.493Z,59.62
2018-08-23T13:24:33.488Z,59.38
2018-08-23T13:25:41.154Z,59.33
2018-08-23T13:26:45.996Z,59.15
2018-08-23T13:27:49.462Z,60.00
2018-08-23T13:28:52.917Z,59.50
2018-08-23T13:29:56.394Z,59.78
2018-08-23T13:30:59.804Z,59.25
2018-08-23T13:32:03.412Z,60.09
2018-08-23T13:33:06.494Z,59.84
2018-08-23T13:34:09.945Z,59.49
2018-08-23T13:35:13.435Z,59.05
2018-08-23T13:36:16.957Z,59.19
2018-08-23T13:37:20.338Z,59.19
2018-08-23T13:38:23.830Z,59.18
2018-08-23T13:39:27.252Z,59.10
2018-08-23T13:40:30.694Z,59.38
2018-08-23T13:41:34.070Z,59.27
2018-08-23T13:42:37.551Z,59.63
2018-08-23T13:43:40.968Z,59.48
2018-08-23T13:44:44.421Z,59.09
2018-08-23T13:45:47.830Z,59.35
2018-08-23T13:46:51.290Z,59.41
2018-08-23T13:47:54.792Z,59.44
2018-08-23T13:48:58.208Z,59.74
2018-08-23T13:50:01.694Z,59.82
2018-08-23T13:51:05.152Z,59.54
2018-08-23T13:52:08.711Z,59.45
2018-08-23T13:53:12.169Z,59.89
2018-08-23T13:54:15.569Z,59.84
2018-08-23T13:55:19.005Z,59.42
2018-08-23T13:56:23.376Z,59.79
2018-08-23T13:57:27.008Z,59.31
2018-08-23T13:58:30.466Z,58.93
2018-08-23T13:59:33.878Z,58.66